createdAt,value
2018-12-14T00:00:37.171Z,21.43
2018-12-14T00:04:01.875Z,21.63
2018-12-14T00:07:26.549Z,20.53
2018-12-14T00:10:51.273Z,21.00
2018-12-14T00:14:15.958Z,19.40
2018-12-14T00:17:40.610Z,19.60
2018-12-14T00:21:05.329Z,19.53
2018-12-14T00:24:30.107Z,18.73
2018-12-14T00:27:54.807Z,20.67
2018-12-14T00:31:19.520Z,21.70
2018-12-14T00:34:44.271Z,20.70
2018-12-14T00:38:08.979Z,20.73
2018-12-14T00:41:33.644Z,22.77
2018-12-14T00:44:58.517Z,22.47
2018-12-14T00:48:23.174Z,21.20
2018-12-14T00:51:47.854Z,19.33
2018-12-14T00:55:12.633Z,19.97
2018-12-14T00:58:37.430Z,22.60
2018-12-14T01:02:02.130Z,22.07
2018-12-14T01:05:26.796Z,23.13
2018-12-14T01:08:51.620Z,22.47
2018-12-14T01:12:16.437Z,23.93
2018-12-14T01:15:41.167Z,24.13
2018-12-14T01:19:05.892Z,21.77
2018-12-14T01:22:30.609Z,22.47
2018-12-14T01:25:55.328Z,23.17
2018-12-14T01:29:19.999Z,22.87
2018-12-14T01:32:45.492Z,23.03
2018-12-14T01:36:10.149Z,25.93
2018-12-14T01:39:34.813Z,25.53
2018-12-14T01:42:59.502Z,25.80
2018-12-14T01:46:24.211Z,26.33
2018-12-14T01:49:48.926Z,23.50
2018-12-14T01:53:13.602Z,23.77
2018-12-14T01:56:38.409Z,23.13
2018-12-14T02:00:03.182Z,22.63
2018-12-14T02:03:27.859Z,23.90
2018-12-14T02:06:52.518Z,22.57
2018-12-14T02:10:17.245Z,21.13
2018-12-14T02:13:41.946Z,22.20
2018-12-14T02:17:06.646Z,22.63
2018-12-14T02:20:31.311Z,22.63
2018-12-14T02:23:55.991Z,22.27
2018-12-14T02:27:20.687Z,20.93
2018-12-14T02:30:46.848Z,21.73
2018-12-14T02:34:11.557Z,22.80
2018-12-14T02:37:36.260Z,20.33
2018-12-14T02:41:01.002Z,21.77
2018-12-14T02:44:25.724Z,20.67
2018-12-14T02:47:50.461Z,19.33
2018-12-14T02:51:15.099Z,22.50
2018-12-14T02:54:39.868Z,21.83
2018-12-14T02:58:04.532Z,19.07
2018-12-14T03:01:29.248Z,19.73
2018-12-14T03:04:53.935Z,19.60
2018-12-14T03:08:18.608Z,20.20
2018-12-14T03:11:43.278Z,20.03
2018-12-14T03:15:08.542Z,20.97
2018-12-14T03:18:33.243Z,20.60
2018-12-14T03:21:58.010Z,19.93
2018-12-14T03:25:22.736Z,19.03
2018-12-14T03:28:47.622Z,20.80
2018-12-14T03:32:12.423Z,19.87
2018-12-14T03:35:37.151Z,19.33
2018-12-14T03:39:01.884Z,20.73
2018-12-14T03:42:33.990Z,18.57
2018-12-14T03:45:53.338Z,18.60
2018-12-14T03:49:18.030Z,21.37
2018-12-14T03:52:42.708Z,18.90
2018-12-14T03:56:07.510Z,19.57
2018-12-14T03:59:32.183Z,19.53
2018-12-14T04:02:57.245Z,17.87
2018-12-14T04:06:21.949Z,18.87
2018-12-14T04:09:46.653Z,19.93
2018-12-14T04:13:11.440Z,19.30
2018-12-14T04:16:36.104Z,18.37
2018-12-14T04:20:00.746Z,17.27
2018-12-14T04:23:25.460Z,18.70
2018-12-14T04:26:50.141Z,18.37
2018-12-14T04:30:14.908Z,19.17
2018-12-14T04:33:39.755Z,19.73
2018-12-14T04:37:04.498Z,18.10
2018-12-14T04:40:29.195Z,19.03
2018-12-14T04:43:53.928Z,19.60
2018-12-14T04:47:18.733Z,19.17
2018-12-14T04:50:43.378Z,20.53
2018-12-14T04:54:08.045Z,20.43
2018-12-14T04:57:32.741Z,19.93
2018-12-14T05:00:57.463Z,21.23
2018-12-14T05:04:22.143Z,20.33
2018-12-14T05:07:46.872Z,20.97
2018-12-14T05:11:11.638Z,21.20
2018-12-14T05:14:36.289Z,21.37
2018-12-14T05:18:00.991Z,19.60
2018-12-14T05:21:25.699Z,19.93
2018-12-14T05:24:50.457Z,20.33
2018-12-14T05:28:15.226Z,19.70
2018-12-14T05:31:39.965Z,21.47
2018-12-14T05:35:05.078Z,20.30
2018-12-14T05:38:29.838Z,19.77
2018-12-14T05:41:54.585Z,20.80
2018-12-14T05:45:19.372Z,20.23
2018-12-14T05:48:44.108Z,20.23
2018-12-14T05:52:08.786Z,19.33
2018-12-14T05:55:33.475Z,19.90
2018-12-14T05:59:07.313Z,20.73
2018-12-14T06:02:31.976Z,20.83
2018-12-14T06:05:56.689Z,20.97
2018-12-14T06:09:21.380Z,21.30
2018-12-14T06:12:46.323Z,19.40
2018-12-14T06:16:11.047Z,20.27
2018-12-14T06:19:35.706Z,20.57
2018-12-14T06:23:00.341Z,21.53
2018-12-14T06:26:25.736Z,22.43
2018-12-14T06:29:51.472Z,19.87
2018-12-14T06:33:16.158Z,20.27
2018-12-14T06:36:40.886Z,21.33
2018-12-14T06:40:05.998Z,20.87
2018-12-14T06:43:30.682Z,20.00
2018-12-14T06:46:55.319Z,19.23
2018-12-14T06:50:20.048Z,21.77
2018-12-14T06:53:44.790Z,20.77
2018-12-14T06:57:09.684Z,20.20
2018-12-14T07:00:34.632Z,20.67
2018-12-14T07:03:59.302Z,21.63
2018-12-14T07:07:24.001Z,21.37
2018-12-14T07:10:48.696Z,23.27
2018-12-14T07:14:13.385Z,20.83
2018-12-14T07:17:38.044Z,20.97
2018-12-14T07:21:02.906Z,21.20
2018-12-14T07:24:27.676Z,20.63
2018-12-14T07:27:52.393Z,20.77
2018-12-14T07:31:17.080Z,22.47
2018-12-14T07:34:41.733Z,22.03
2018-12-14T07:38:06.400Z,23.00
2018-12-14T07:41:31.074Z,21.83
2018-12-14T07:44:56.035Z,22.73
2018-12-14T07:48:20.883Z,21.30
2018-12-14T07:51:45.624Z,23.33
2018-12-14T07:55:10.299Z,20.93
2018-12-14T07:58:36.109Z,21.03
2018-12-14T08:02:00.809Z,20.73
2018-12-14T08:05:25.578Z,21.57
2018-12-14T08:08:50.297Z,20.47
2018-12-14T08:12:14.949Z,21.43
2018-12-14T08:15:39.641Z,21.07
2018-12-14T08:19:04.310Z,20.33
2018-12-14T08:22:29.054Z,19.90
2018-12-14T08:25:53.695Z,21.70
2018-12-14T08:29:18.331Z,20.53
2018-12-14T08:32:43.035Z,20.77
2018-12-14T08:36:07.736Z,20.83
2018-12-14T08:39:32.405Z,21.50
2018-12-14T08:42:57.049Z,21.23
2018-12-14T08:46:21.699Z,20.40
2018-12-14T08:49:46.351Z,23.10
2018-12-14T08:53:11.407Z,20.43
2018-12-14T08:56:36.092Z,19.40
2018-12-14T09:00:00.809Z,22.27
2018-12-14T09:03:25.515Z,20.67
2018-12-14T09:06:50.226Z,23.73
2018-12-14T09:10:17.071Z,22.67
2018-12-14T09:13:47.687Z,20.00
2018-12-14T09:17:08.960Z,22.17
2018-12-14T09:20:33.686Z,20.87
2018-12-14T09:23:58.379Z,19.90
2018-12-14T09:27:23.288Z,20.27
2018-12-14T09:30:48.008Z,18.63
2018-12-14T09:34:12.697Z,21.40
2018-12-14T09:37:37.443Z,20.60
2018-12-14T09:41:02.107Z,19.13
2018-12-14T09:44:26.800Z,18.77
2018-12-14T09:47:51.527Z,20.47
2018-12-14T09:51:16.282Z,20.53
2018-12-14T09:54:41.037Z,20.70
2018-12-14T10:01:42.384Z,20.90
2018-12-14T10:05:09.269Z,22.03
2018-12-14T10:08:34.063Z,21.20
2018-12-14T10:11:58.990Z,22.07
2018-12-14T10:15:34.294Z,19.53
2018-12-14T10:18:59.618Z,20.40
2018-12-14T10:22:24.586Z,21.30
2018-12-14T10:25:49.341Z,20.60
2018-12-14T10:29:14.232Z,21.53
2018-12-14T10:32:39.125Z,20.00
2018-12-14T10:36:03.848Z,20.97
2018-12-14T10:39:29.637Z,20.07
2018-12-14T10:42:54.309Z,19.60
2018-12-14T10:46:19.017Z,20.20
2018-12-14T10:49:43.754Z,20.53
2018-12-14T10:53:12.601Z,19.83
2018-12-14T10:56:37.395Z,19.23
2018-12-14T11:00:02.054Z,20.40
2018-12-14T11:03:26.773Z,19.07
2018-12-14T11:06:51.543Z,18.53
2018-12-14T11:10:16.295Z,20.03
2018-12-14T11:13:41.057Z,20.87
2018-12-14T11:17:05.863Z,18.27
2018-12-14T11:20:30.586Z,18.90
2018-12-14T11:23:55.318Z,19.90
2018-12-14T11:27:20.023Z,19.13
2018-12-14T11:30:44.807Z,19.93
2018-12-14T11:34:09.463Z,17.90
2018-12-14T11:37:34.219Z,18.07
2018-12-14T11:40:59.029Z,17.63
2018-12-14T11:44:23.726Z,18.77
2018-12-14T11:47:49.146Z,16.67
2018-12-14T11:51:18.642Z,17.67
2018-12-14T11:54:43.645Z,16.97
2018-12-14T11:58:08.466Z,17.53
2018-12-14T12:01:33.987Z,18.57
2018-12-14T12:04:59.592Z,16.77
2018-12-14T12:08:25.440Z,16.83
2018-12-14T12:11:50.081Z,19.00
2018-12-14T12:15:14.793Z,19.17
2018-12-14T12:18:39.479Z,19.43
2018-12-14T12:22:04.120Z,19.77
2018-12-14T12:25:28.886Z,17.83
2018-12-14T12:28:53.598Z,19.10
2018-12-14T12:32:18.259Z,18.23
2018-12-14T12:35:43.147Z,18.13
2018-12-14T12:39:10.317Z,18.30
2018-12-14T12:42:35.271Z,18.10
2018-12-14T12:46:01.081Z,19.00
2018-12-14T12:49:25.963Z,18.13
2018-12-14T12:52:50.727Z,17.33
2018-12-14T12:56:15.737Z,17.83
2018-12-14T12:59:40.584Z,16.83
2018-12-14T13:03:06.279Z,18.73
2018-12-14T13:06:30.964Z,18.37
2018-12-14T13:09:55.761Z,19.20
2018-12-14T13:13:20.441Z,21.40
2018-12-14T13:16:45.113Z,20.17
2018-12-14T13:20:09.863Z,19.33
2018-12-14T13:23:34.583Z,19.73
2018-12-14T13:26:59.280Z,19.43
2018-12-14T13:30:23.954Z,19.80
2018-12-14T13:33:48.696Z,21.40
2018-12-14T13:37:13.516Z,18.10
2018-12-14T13:40:38.213Z,19.33
2018-12-14T13:44:09.204Z,18.80
2018-12-14T13:47:33.919Z,19.87
2018-12-14T13:50:58.579Z,20.10
2018-12-14T13:54:23.274Z,19.20
2018-12-14T13:57:47.932Z,19.03
2018-12-14T14:01:12.642Z,19.27
2018-12-14T14:04:37.338Z,20.83
2018-12-14T14:08:02.043Z,21.33
2018-12-14T14:11:26.755Z,20.47
2018-12-14T14:14:53.124Z,20.03
2018-12-14T14:18:17.911Z,19.40
2018-12-14T14:21:43.297Z,18.67
2018-12-14T14:25:08.206Z,21.07
2018-12-14T14:28:32.947Z,20.93
2018-12-14T14:31:57.718Z,18.50
2018-12-14T14:35:22.466Z,19.77
2018-12-14T14:38:47.232Z,20.23
2018-12-14T14:42:11.948Z,19.20
2018-12-14T14:45:36.700Z,22.13
2018-12-14T14:49:01.517Z,20.00
2018-12-14T14:52:26.271Z,21.50
2018-12-14T14:55:52.404Z,19.57
2018-12-14T14:59:17.093Z,20.00
2018-12-14T15:02:41.758Z,19.73
2018-12-14T15:06:06.465Z,20.23
2018-12-14T15:09:31.150Z,20.67
2018-12-14T15:12:55.790Z,22.47
2018-12-14T15:16:20.474Z,18.83
2018-12-14T15:19:45.160Z,20.73
2018-12-14T15:23:09.889Z,19.93
2018-12-14T15:26:34.553Z,21.33
2018-12-14T15:29:59.189Z,20.17
2018-12-14T15:33:23.928Z,20.70
2018-12-14T15:36:48.625Z,20.97
2018-12-14T15:40:14.391Z,20.97
2018-12-14T15:43:39.191Z,21.13
2018-12-14T15:47:03.876Z,22.20
2018-12-14T15:50:28.676Z,22.37
2018-12-14T15:53:53.398Z,22.70
2018-12-14T15:57:18.094Z,20.67
2018-12-14T16:00:42.831Z,20.20
2018-12-14T16:04:07.571Z,20.03
2018-12-14T16:07:32.601Z,20.07
2018-12-14T16:10:57.327Z,20.70
2018-12-14T16:14:22.074Z,21.33
2018-12-14T16:17:47.005Z,21.60
2018-12-14T16:21:11.743Z,20.80
2018-12-14T16:24:36.510Z,21.53
2018-12-14T16:28:01.431Z,21.30
2018-12-14T16:31:26.140Z,21.53
2018-12-14T16:34:50.932Z,20.37
2018-12-14T16:38:15.674Z,21.93
2018-12-14T16:41:40.560Z,19.47
2018-12-14T16:45:06.041Z,20.53
2018-12-14T16:48:30.758Z,18.73
2018-12-14T16:51:55.433Z,20.10
2018-12-14T16:55:20.135Z,19.37
2018-12-14T16:58:44.819Z,20.53
2018-12-14T17:02:09.845Z,20.57
2018-12-14T17:05:34.595Z,22.07
2018-12-14T17:08:59.319Z,19.60
2018-12-14T17:12:24.007Z,21.70
2018-12-14T17:15:48.677Z,20.50
2018-12-14T17:19:13.402Z,20.23
2018-12-14T17:22:38.084Z,18.67
2018-12-14T17:26:02.887Z,21.77
2018-12-14T17:29:27.609Z,22.93
2018-12-14T17:32:52.290Z,21.87
2018-12-14T17:36:16.999Z,20.70
2018-12-14T17:39:41.709Z,19.83
2018-12-14T17:43:06.450Z,19.87
2018-12-14T17:46:31.186Z,21.57
2018-12-14T17:49:56.581Z,20.03
2018-12-14T17:53:22.147Z,19.63
2018-12-14T17:56:48.627Z,19.20
2018-12-14T18:00:16.139Z,20.77
2018-12-14T18:03:40.997Z,20.17
2018-12-14T18:07:05.817Z,20.07
2018-12-14T18:10:30.562Z,19.47
2018-12-14T18:14:09.586Z,19.90
2018-12-14T18:21:40.212Z,21.80
2018-12-14T18:25:10.916Z,21.17
2018-12-14T18:28:40.317Z,20.87
2018-12-14T18:32:07.003Z,19.60
2018-12-14T18:35:32.516Z,20.90
2018-12-14T18:38:57.153Z,23.27
2018-12-14T18:42:21.901Z,21.70
2018-12-14T18:45:52.936Z,19.87
2018-12-14T18:49:14.497Z,22.07
2018-12-14T18:52:39.256Z,20.80
2018-12-14T18:56:03.935Z,19.47
2018-12-14T18:59:28.946Z,20.37
2018-12-14T19:02:53.900Z,17.83
2018-12-14T19:06:18.645Z,22.57
2018-12-14T19:09:43.438Z,22.63
2018-12-14T19:13:08.269Z,21.27
2018-12-14T19:16:32.995Z,20.73
2018-12-14T19:19:57.704Z,22.10
2018-12-14T19:23:22.509Z,19.67
2018-12-14T19:26:47.233Z,20.70
2018-12-14T19:30:12.043Z,20.53
2018-12-14T19:33:37.489Z,22.27
2018-12-14T19:37:03.252Z,21.20
2018-12-14T19:40:29.089Z,20.47
2018-12-14T19:43:53.856Z,23.97
2018-12-14T19:47:19.910Z,21.43
2018-12-14T19:50:44.576Z,20.93
2018-12-14T19:54:09.348Z,20.07
2018-12-14T19:57:34.082Z,23.30
2018-12-14T20:00:58.820Z,20.67
2018-12-14T20:04:23.575Z,22.10
2018-12-14T20:07:50.488Z,22.20
2018-12-14T20:11:15.221Z,21.40
2018-12-14T20:14:40.010Z,21.53
2018-12-14T20:18:04.736Z,22.10
2018-12-14T20:21:29.431Z,22.77
2018-12-14T20:24:54.148Z,19.40
2018-12-14T20:28:18.881Z,21.67
2018-12-14T20:31:43.751Z,20.43
2018-12-14T20:35:08.993Z,21.60
2018-12-14T20:38:33.723Z,19.37
2018-12-14T20:41:58.559Z,18.33
2018-12-14T20:45:23.361Z,16.37
2018-12-14T20:48:48.080Z,16.13
2018-12-14T20:52:12.938Z,14.73
2018-12-14T20:55:37.834Z,14.20
2018-12-14T20:59:02.562Z,15.37
2018-12-14T21:02:27.430Z,15.63
2018-12-14T21:05:52.260Z,15.63
2018-12-14T21:09:17.126Z,13.07
2018-12-14T21:12:41.899Z,14.60
2018-12-14T21:16:06.710Z,13.50
2018-12-14T21:19:31.455Z,11.97
2018-12-14T21:22:56.113Z,12.00
2018-12-14T21:26:20.769Z,11.57
2018-12-14T21:29:45.460Z,13.50
2018-12-14T21:33:10.120Z,12.23
2018-12-14T21:36:34.854Z,11.93
2018-12-14T21:39:59.573Z,12.63
2018-12-14T21:43:24.320Z,11.23
2018-12-14T21:46:49.085Z,13.90
2018-12-14T21:50:13.772Z,12.63
2018-12-14T21:53:38.626Z,11.63
2018-12-14T21:57:03.422Z,11.77
2018-12-14T22:00:28.328Z,10.77
2018-12-14T22:03:53.202Z,11.77
2018-12-14T22:07:17.918Z,12.00
2018-12-14T22:10:42.670Z,11.40
2018-12-14T22:14:07.453Z,12.50
2018-12-14T22:17:32.154Z,13.30
2018-12-14T22:20:56.803Z,12.27
2018-12-14T22:24:21.440Z,12.53
2018-12-14T22:27:46.687Z,11.73
2018-12-14T22:31:11.356Z,11.10
2018-12-14T22:34:35.983Z,12.30
2018-12-14T22:38:00.766Z,10.93
2018-12-14T22:41:25.575Z,12.03
2018-12-14T22:44:50.289Z,11.00
2018-12-14T22:48:15.039Z,11.80
2018-12-14T22:51:39.780Z,11.23
2018-12-14T22:55:04.906Z,10.90
2018-12-14T22:58:29.533Z,11.37
2018-12-14T23:01:54.240Z,11.77
2018-12-14T23:05:19.054Z,11.87
2018-12-14T23:08:44.395Z,11.53
2018-12-14T23:12:09.080Z,12.80
2018-12-14T23:15:33.845Z,12.63
2018-12-14T23:18:58.552Z,10.97
2018-12-14T23:22:23.226Z,11.93
2018-12-14T23:25:48.578Z,12.30
2018-12-14T23:32:48.365Z,11.50
2018-12-14T23:36:13.154Z,10.67
2018-12-14T23:39:37.953Z,10.90
2018-12-14T23:43:02.791Z,12.87
2018-12-14T23:46:27.600Z,12.53
2018-12-14T23:49:52.303Z,12.57
2018-12-14T23:53:17.037Z,12.17
2018-12-14T23:56:41.701Z,11.77
